sensor_id;sensor_type;location;lat;lon;timestamp;P1;durP1;ratioP1;P2;durP2;ratioP2
82873;SDS011;72647;51.622;7.540;2024-01-15T00:01:14;44.05;;;17.80;;
82873;SDS011;72647;51.622;7.540;2024-01-15T00:03:14;68.43;;;19.43;;
82873;SDS011;72647;51.622;7.540;2024-01-15T00:05:15;59.90;;;16.83;;
82873;SDS011;72647;51.622;7.540;2024-01-15T00:07:15;64.10;;;19.50;;
82873;SDS011;72647;51.622;7.540;2024-01-15T00:09:15;46.00;;;16.00;;
82873;SDS011;72647;51.622;7.540;2024-01-15T00:11:16;53.65;;;18.63;;
82873;SDS011;72647;51.622;7.540;2024-01-15T00:13:16;58.37;;;17.70;;
82873;SDS011;72647;51.622;7.540;2024-01-15T00:15:16;45.92;;;15.93;;
82873;SDS011;72647;51.622;7.540;2024-01-15T00:17:17;53.57;;;17.77;;
82873;SDS011;72647;51.622;7.540;2024-01-15T00:19:17;54.27;;;18.57;;
82873;SDS011;72647;51.622;7.540;2024-01-15T00:21:17;56.72;;;17.55;;
82873;SDS011;72647;51.622;7.540;2024-01-15T00:23:18;53.97;;;17.70;;
82873;SDS011;72647;51.622;7.540;2024-01-15T00:25:18;56.37;;;19.10;;
82873;SDS011;72647;51.622;7.540;2024-01-15T00:27:18;53.27;;;18.30;;
82873;SDS011;72647;51.622;7.540;2024-01-15T00:29:18;45.17;;;16.03;;
82873;SDS011;72647;51.622;7.540;2024-01-15T00:31:18;59.77;;;18.03;;
82873;SDS011;72647;51.622;7.540;2024-01-15T00:33:19;48.53;;;16.83;;
82873;SDS011;72647;51.622;7.540;2024-01-15T00:35:19;49.83;;;15.87;;
82873;SDS011;72647;51.622;7.540;2024-01-15T00:37:19;54.47;;;17.60;;
82873;SDS011;72647;51.622;7.540;2024-01-15T00:39:19;53.60;;;18.05;;
82873;SDS011;72647;51.622;7.540;2024-01-15T00:41:20;55.37;;;18.70;;
82873;SDS011;72647;51.622;7.540;2024-01-15T00:43:20;53.17;;;18.13;;
82873;SDS011;72647;51.622;7.540;2024-01-15T00:45:21;53.78;;;17.58;;
82873;SDS011;72647;51.622;7.540;2024-01-15T00:47:21;56.58;;;18.60;;
82873;SDS011;72647;51.622;7.540;2024-01-15T00:49:21;42.53;;;16.00;;
82873;SDS011;72647;51.622;7.540;2024-01-15T00:51:22;43.80;;;15.33;;
82873;SDS011;72647;51.622;7.540;2024-01-15T00:53:22;51.70;;;16.03;;
82873;SDS011;72647;51.622;7.540;2024-01-15T00:55:22;48.30;;;16.33;;
82873;SDS011;72647;51.622;7.540;2024-01-15T00:57:22;39.43;;;14.50;;
82873;SDS011;72647;51.622;7.540;2024-01-15T00:59:22;32.77;;;12.30;;
82873;SDS011;72647;51.622;7.540;2024-01-15T01:01:23;40.13;;;14.03;;
82873;SDS011;72647;51.622;7.540;2024-01-15T01:03:23;39.10;;;13.97;;
82873;SDS011;72647;51.622;7.540;2024-01-15T01:05:23;39.10;;;14.20;;
82873;SDS011;72647;51.622;7.540;2024-01-15T01:07:23;37.70;;;12.77;;
82873;SDS011;72647;51.622;7.540;2024-01-15T01:09:23;51.77;;;16.83;;
82873;SDS011;72647;51.622;7.540;2024-01-15T01:11:24;41.28;;;13.75;;
82873;SDS011;72647;51.622;7.540;2024-01-15T01:13:24;43.63;;;15.60;;
82873;SDS011;72647;51.622;7.540;2024-01-15T01:15:24;37.43;;;12.67;;
82873;SDS011;72647;51.622;7.540;2024-01-15T01:17:25;33.73;;;12.73;;
82873;SDS011;72647;51.622;7.540;2024-01-15T01:19:25;39.93;;;13.83;;
82873;SDS011;72647;51.622;7.540;2024-01-15T01:21:25;38.80;;;13.87;;
82873;SDS011;72647;51.622;7.540;2024-01-15T01:23:26;43.37;;;15.37;;
82873;SDS011;72647;51.622;7.540;2024-01-15T01:25:26;36.28;;;13.90;;
82873;SDS011;72647;51.622;7.540;2024-01-15T01:27:26;40.15;;;15.35;;
82873;SDS011;72647;51.622;7.540;2024-01-15T01:29:27;48.20;;;16.03;;
82873;SDS011;72647;51.622;7.540;2024-01-15T01:31:27;24.73;;;9.43;;
82873;SDS011;72647;51.622;7.540;2024-01-15T01:33:27;40.70;;;13.48;;
82873;SDS011;72647;51.622;7.540;2024-01-15T01:35:28;40.07;;;14.20;;
82873;SDS011;72647;51.622;7.540;2024-01-15T01:37:28;50.83;;;15.93;;
82873;SDS011;72647;51.622;7.540;2024-01-15T01:39:28;45.13;;;14.13;;
82873;SDS011;72647;51.622;7.540;2024-01-15T01:41:28;36.13;;;13.20;;
82873;SDS011;72647;51.622;7.540;2024-01-15T01:43:29;37.85;;;14.25;;
82873;SDS011;72647;51.622;7.540;2024-01-15T01:45:29;51.33;;;16.30;;
82873;SDS011;72647;51.622;7.540;2024-01-15T01:47:29;24.47;;;8.80;;
82873;SDS011;72647;51.622;7.540;2024-01-15T01:49:29;42.88;;;16.40;;
82873;SDS011;72647;51.622;7.540;2024-01-15T01:51:30;46.03;;;15.32;;
82873;SDS011;72647;51.622;7.540;2024-01-15T01:53:31;35.55;;;12.85;;
82873;SDS011;72647;51.622;7.540;2024-01-15T01:55:32;38.53;;;13.63;;
82873;SDS011;72647;51.622;7.540;2024-01-15T01:57:33;42.38;;;14.27;;
82873;SDS011;72647;51.622;7.540;2024-01-15T01:59:34;41.42;;;13.98;;
82873;SDS011;72647;51.622;7.540;2024-01-15T02:01:34;41.10;;;14.75;;
82873;SDS011;72647;51.622;7.540;2024-01-15T02:03:35;38.95;;;13.48;;
82873;SDS011;72647;51.622;7.540;2024-01-15T02:05:35;33.03;;;12.57;;
82873;SDS011;72647;51.622;7.540;2024-01-15T02:07:36;31.02;;;12.23;;
82873;SDS011;72647;51.622;7.540;2024-01-15T02:09:36;42.97;;;13.98;;
82873;SDS011;72647;51.622;7.540;2024-01-15T02:11:37;41.40;;;13.80;;
82873;SDS011;72647;51.622;7.540;2024-01-15T02:13:38;38.40;;;14.23;;
82873;SDS011;72647;51.622;7.540;2024-01-15T02:15:38;39.67;;;13.93;;
82873;SDS011;72647;51.622;7.540;2024-01-15T02:17:58;38.75;;;13.27;;
82873;SDS011;72647;51.622;7.540;2024-01-15T02:19:58;30.67;;;11.43;;
82873;SDS011;72647;51.622;7.540;2024-01-15T02:21:59;33.60;;;12.57;;
82873;SDS011;72647;51.622;7.540;2024-01-15T02:23:59;39.40;;;12.50;;
82873;SDS011;72647;51.622;7.540;2024-01-15T02:25:59;31.50;;;12.75;;
82873;SDS011;72647;51.622;7.540;2024-01-15T02:27:59;24.00;;;8.17;;
82873;SDS011;72647;51.622;7.540;2024-01-15T02:30:00;28.50;;;10.90;;
82873;SDS011;72647;51.622;7.540;2024-01-15T02:32:03;33.33;;;12.55;;
82873;SDS011;72647;51.622;7.540;2024-01-15T02:34:04;41.17;;;13.88;;
82873;SDS011;72647;51.622;7.540;2024-01-15T02:36:05;36.88;;;14.63;;
82873;SDS011;72647;51.622;7.540;2024-01-15T02:38:05;39.17;;;14.48;;
82873;SDS011;72647;51.622;7.540;2024-01-15T02:40:06;38.78;;;13.95;;
82873;SDS011;72647;51.622;7.540;2024-01-15T02:42:06;41.53;;;13.80;;
82873;SDS011;72647;51.622;7.540;2024-01-15T02:44:06;27.80;;;12.30;;
82873;SDS011;72647;51.622;7.540;2024-01-15T02:46:07;28.17;;;11.00;;
82873;SDS011;72647;51.622;7.540;2024-01-15T02:48:07;35.40;;;13.80;;
82873;SDS011;72647;51.622;7.540;2024-01-15T02:50:07;37.27;;;12.97;;
82873;SDS011;72647;51.622;7.540;2024-01-15T02:52:07;34.23;;;13.27;;
82873;SDS011;72647;51.622;7.540;2024-01-15T02:54:08;38.10;;;13.70;;
82873;SDS011;72647;51.622;7.540;2024-01-15T02:56:08;32.63;;;12.43;;
82873;SDS011;72647;51.622;7.540;2024-01-15T02:58:08;31.40;;;12.87;;
82873;SDS011;72647;51.622;7.540;2024-01-15T03:00:09;39.07;;;14.30;;
82873;SDS011;72647;51.622;7.540;2024-01-15T03:02:10;35.67;;;15.05;;
82873;SDS011;72647;51.622;7.540;2024-01-15T03:04:10;35.50;;;14.60;;
82873;SDS011;72647;51.622;7.540;2024-01-15T03:06:10;25.57;;;10.53;;
82873;SDS011;72647;51.622;7.540;2024-01-15T03:08:10;34.97;;;12.63;;
82873;SDS011;72647;51.622;7.540;2024-01-15T03:10:11;41.83;;;14.40;;
82873;SDS011;72647;51.622;7.540;2024-01-15T03:12:11;39.17;;;13.40;;
82873;SDS011;72647;51.622;7.540;2024-01-15T03:14:11;37.20;;;14.03;;
82873;SDS011;72647;51.622;7.540;2024-01-15T03:16:11;39.20;;;14.33;;
82873;SDS011;72647;51.622;7.540;2024-01-15T03:18:12;40.47;;;16.83;;
82873;SDS011;72647;51.622;7.540;2024-01-15T03:20:12;37.03;;;12.93;;
82873;SDS011;72647;51.622;7.540;2024-01-15T03:22:12;34.70;;;12.40;;
82873;SDS011;72647;51.622;7.540;2024-01-15T03:24:12;31.57;;;11.37;;
82873;SDS011;72647;51.622;7.540;2024-01-15T03:26:12;29.23;;;10.13;;
82873;SDS011;72647;51.622;7.540;2024-01-15T03:28:13;30.47;;;11.87;;
82873;SDS011;72647;51.622;7.540;2024-01-15T03:30:13;30.53;;;11.10;;
82873;SDS011;72647;51.622;7.540;2024-01-15T03:32:13;32.58;;;12.07;;
82873;SDS011;72647;51.622;7.540;2024-01-15T03:34:13;29.65;;;12.60;;
82873;SDS011;72647;51.622;7.540;2024-01-15T03:36:14;26.67;;;11.07;;
82873;SDS011;72647;51.622;7.540;2024-01-15T03:38:14;31.87;;;10.57;;
82873;SDS011;72647;51.622;7.540;2024-01-15T03:40:14;30.43;;;11.97;;
82873;SDS011;72647;51.622;7.540;2024-01-15T03:42:14;28.70;;;10.98;;
82873;SDS011;72647;51.622;7.540;2024-01-15T03:44:15;29.00;;;13.20;;
82873;SDS011;72647;51.622;7.540;2024-01-15T03:46:15;41.43;;;12.97;;
82873;SDS011;72647;51.622;7.540;2024-01-15T03:48:15;27.27;;;10.67;;
82873;SDS011;72647;51.622;7.540;2024-01-15T03:50:15;29.40;;;10.73;;
82873;SDS011;72647;51.622;7.540;2024-01-15T03:52:15;32.80;;;11.03;;
82873;SDS011;72647;51.622;7.540;2024-01-15T03:54:16;37.10;;;14.25;;
82873;SDS011;72647;51.622;7.540;2024-01-15T03:56:16;33.43;;;12.37;;
82873;SDS011;72647;51.622;7.540;2024-01-15T03:58:17;21.38;;;10.45;;
82873;SDS011;72647;51.622;7.540;2024-01-15T04:00:17;28.67;;;10.67;;
82873;SDS011;72647;51.622;7.540;2024-01-15T04:02:17;47.90;;;13.10;;
82873;SDS011;72647;51.622;7.540;2024-01-15T04:04:17;34.77;;;12.20;;
82873;SDS011;72647;51.622;7.540;2024-01-15T04:06:18;38.10;;;13.35;;
82873;SDS011;72647;51.622;7.540;2024-01-15T04:08:18;28.27;;;11.05;;
82873;SDS011;72647;51.622;7.540;2024-01-15T04:10:18;27.23;;;9.23;;
82873;SDS011;72647;51.622;7.540;2024-01-15T04:12:19;28.20;;;12.20;;
82873;SDS011;72647;51.622;7.540;2024-01-15T04:14:19;29.53;;;11.37;;
82873;SDS011;72647;51.622;7.540;2024-01-15T04:16:19;33.40;;;12.23;;
82873;SDS011;72647;51.622;7.540;2024-01-15T04:18:20;24.48;;;9.48;;
82873;SDS011;72647;51.622;7.540;2024-01-15T04:20:20;36.83;;;11.80;;
82873;SDS011;72647;51.622;7.540;2024-01-15T04:22:20;40.17;;;12.00;;
82873;SDS011;72647;51.622;7.540;2024-01-15T04:24:20;34.97;;;12.03;;
82873;SDS011;72647;51.622;7.540;2024-01-15T04:26:20;34.07;;;12.60;;
82873;SDS011;72647;51.622;7.540;2024-01-15T04:28:21;38.63;;;14.27;;
82873;SDS011;72647;51.622;7.540;2024-01-15T04:30:21;31.60;;;11.93;;
82873;SDS011;72647;51.622;7.540;2024-01-15T04:32:21;24.07;;;10.67;;
82873;SDS011;72647;51.622;7.540;2024-01-15T04:34:21;33.10;;;11.87;;
82873;SDS011;72647;51.622;7.540;2024-01-15T04:36:21;30.70;;;11.57;;
82873;SDS011;72647;51.622;7.540;2024-01-15T04:38:22;25.67;;;9.80;;
82873;SDS011;72647;51.622;7.540;2024-01-15T04:40:22;37.80;;;15.47;;
82873;SDS011;72647;51.622;7.540;2024-01-15T04:42:22;36.67;;;11.50;;
82873;SDS011;72647;51.622;7.540;2024-01-15T04:44:22;29.38;;;10.32;;
82873;SDS011;72647;51.622;7.540;2024-01-15T04:46:23;32.03;;;10.20;;
82873;SDS011;72647;51.622;7.540;2024-01-15T04:48:23;26.33;;;10.20;;
82873;SDS011;72647;51.622;7.540;2024-01-15T04:50:23;25.43;;;10.07;;
82873;SDS011;72647;51.622;7.540;2024-01-15T04:52:24;23.38;;;9.45;;
82873;SDS011;72647;51.622;7.540;2024-01-15T04:54:24;21.40;;;6.90;;
82873;SDS011;72647;51.622;7.540;2024-01-15T04:56:24;22.47;;;9.90;;
82873;SDS011;72647;51.622;7.540;2024-01-15T04:58:24;19.10;;;8.23;;
82873;SDS011;72647;51.622;7.540;2024-01-15T05:00:26;29.20;;;11.50;;
82873;SDS011;72647;51.622;7.540;2024-01-15T05:02:26;22.60;;;9.13;;
82873;SDS011;72647;51.622;7.540;2024-01-15T05:04:27;23.57;;;10.60;;
82873;SDS011;72647;51.622;7.540;2024-01-15T05:06:27;21.70;;;9.30;;
82873;SDS011;72647;51.622;7.540;2024-01-15T05:08:27;23.67;;;8.65;;
82873;SDS011;72647;51.622;7.540;2024-01-15T05:10:28;23.93;;;8.97;;
82873;SDS011;72647;51.622;7.540;2024-01-15T05:12:28;17.70;;;7.17;;
82873;SDS011;72647;51.622;7.540;2024-01-15T05:14:28;23.17;;;8.33;;
82873;SDS011;72647;51.622;7.540;2024-01-15T05:16:28;28.30;;;10.80;;
82873;SDS011;72647;51.622;7.540;2024-01-15T05:18:28;27.80;;;10.67;;
82873;SDS011;72647;51.622;7.540;2024-01-15T05:20:29;25.10;;;9.47;;
82873;SDS011;72647;51.622;7.540;2024-01-15T05:22:29;26.73;;;9.93;;
82873;SDS011;72647;51.622;7.540;2024-01-15T05:24:29;23.23;;;9.33;;
82873;SDS011;72647;51.622;7.540;2024-01-15T05:26:29;16.27;;;7.93;;
82873;SDS011;72647;51.622;7.540;2024-01-15T05:28:29;16.27;;;7.70;;
82873;SDS011;72647;51.622;7.540;2024-01-15T05:30:30;15.00;;;7.87;;
82873;SDS011;72647;51.622;7.540;2024-01-15T05:32:30;21.07;;;8.60;;
82873;SDS011;72647;51.622;7.540;2024-01-15T05:34:30;22.63;;;9.60;;
82873;SDS011;72647;51.622;7.540;2024-01-15T05:36:30;21.93;;;8.90;;
82873;SDS011;72647;51.622;7.540;2024-01-15T05:38:31;16.70;;;7.73;;
82873;SDS011;72647;51.622;7.540;2024-01-15T05:40:31;23.67;;;9.10;;
82873;SDS011;72647;51.622;7.540;2024-01-15T05:42:31;23.67;;;9.90;;
82873;SDS011;72647;51.622;7.540;2024-01-15T05:44:32;23.75;;;10.27;;
82873;SDS011;72647;51.622;7.540;2024-01-15T05:46:32;27.77;;;9.25;;
82873;SDS011;72647;51.622;7.540;2024-01-15T05:48:32;27.67;;;9.43;;
82873;SDS011;72647;51.622;7.540;2024-01-15T05:50:32;20.37;;;8.87;;
82873;SDS011;72647;51.622;7.540;2024-01-15T05:52:32;18.50;;;8.37;;
82873;SDS011;72647;51.622;7.540;2024-01-15T05:54:33;25.80;;;10.17;;
82873;SDS011;72647;51.622;7.540;2024-01-15T05:56:33;23.13;;;8.90;;
82873;SDS011;72647;51.622;7.540;2024-01-15T05:58:33;25.50;;;10.33;;
82873;SDS011;72647;51.622;7.540;2024-01-15T06:00:33;28.77;;;9.53;;
82873;SDS011;72647;51.622;7.540;2024-01-15T06:04:35;18.55;;;6.95;;
82873;SDS011;72647;51.622;7.540;2024-01-15T06:06:35;20.87;;;8.67;;
82873;SDS011;72647;51.622;7.540;2024-01-15T06:08:36;29.07;;;10.67;;
82873;SDS011;72647;51.622;7.540;2024-01-15T06:10:36;26.93;;;10.67;;
82873;SDS011;72647;51.622;7.540;2024-01-15T06:12:36;28.40;;;10.77;;
82873;SDS011;72647;51.622;7.540;2024-01-15T06:14:36;24.37;;;9.07;;
82873;SDS011;72647;51.622;7.540;2024-01-15T06:16:37;29.35;;;10.82;;
82873;SDS011;72647;51.622;7.540;2024-01-15T06:18:37;25.07;;;8.37;;
82873;SDS011;72647;51.622;7.540;2024-01-15T06:20:37;28.10;;;9.83;;
82873;SDS011;72647;51.622;7.540;2024-01-15T06:22:38;24.30;;;9.05;;
82873;SDS011;72647;51.622;7.540;2024-01-15T06:24:39;28.65;;;9.27;;
82873;SDS011;72647;51.622;7.540;2024-01-15T06:26:39;22.83;;;10.47;;
82873;SDS011;72647;51.622;7.540;2024-01-15T06:28:39;30.67;;;11.37;;
82873;SDS011;72647;51.622;7.540;2024-01-15T06:30:39;27.53;;;10.47;;
82873;SDS011;72647;51.622;7.540;2024-01-15T06:32:40;21.97;;;9.87;;
82873;SDS011;72647;51.622;7.540;2024-01-15T06:34:40;28.63;;;10.63;;
82873;SDS011;72647;51.622;7.540;2024-01-15T06:36:40;22.37;;;9.30;;
82873;SDS011;72647;51.622;7.540;2024-01-15T06:38:40;27.13;;;10.07;;
82873;SDS011;72647;51.622;7.540;2024-01-15T06:40:40;24.43;;;9.50;;
82873;SDS011;72647;51.622;7.540;2024-01-15T06:42:45;22.48;;;8.98;;
82873;SDS011;72647;51.622;7.540;2024-01-15T06:44:45;29.33;;;9.87;;
82873;SDS011;72647;51.622;7.540;2024-01-15T06:46:45;25.57;;;9.70;;
82873;SDS011;72647;51.622;7.540;2024-01-15T06:48:45;27.87;;;10.23;;
82873;SDS011;72647;51.622;7.540;2024-01-15T06:50:46;26.20;;;10.53;;
82873;SDS011;72647;51.622;7.540;2024-01-15T06:52:46;17.60;;;6.07;;
82873;SDS011;72647;51.622;7.540;2024-01-15T06:54:46;27.20;;;10.00;;
82873;SDS011;72647;51.622;7.540;2024-01-15T06:56:47;19.30;;;7.68;;
82873;SDS011;72647;51.622;7.540;2024-01-15T06:58:48;20.53;;;8.07;;
82873;SDS011;72647;51.622;7.540;2024-01-15T07:00:48;27.63;;;10.73;;
82873;SDS011;72647;51.622;7.540;2024-01-15T07:02:48;27.90;;;10.33;;
82873;SDS011;72647;51.622;7.540;2024-01-15T07:04:49;26.23;;;9.33;;
82873;SDS011;72647;51.622;7.540;2024-01-15T07:06:49;27.65;;;10.73;;
82873;SDS011;72647;51.622;7.540;2024-01-15T07:08:50;27.50;;;11.70;;
82873;SDS011;72647;51.622;7.540;2024-01-15T07:10:50;24.10;;;9.83;;
82873;SDS011;72647;51.622;7.540;2024-01-15T07:12:50;21.30;;;9.17;;
82873;SDS011;72647;51.622;7.540;2024-01-15T07:14:50;23.57;;;8.37;;
82873;SDS011;72647;51.622;7.540;2024-01-15T07:16:50;27.97;;;9.87;;
82873;SDS011;72647;51.622;7.540;2024-01-15T07:18:50;28.53;;;10.43;;
82873;SDS011;72647;51.622;7.540;2024-01-15T07:20:51;27.63;;;11.13;;
82873;SDS011;72647;51.622;7.540;2024-01-15T07:22:51;27.90;;;10.65;;
82873;SDS011;72647;51.622;7.540;2024-01-15T07:24:51;29.83;;;9.90;;
82873;SDS011;72647;51.622;7.540;2024-01-15T07:26:51;23.13;;;9.53;;
82873;SDS011;72647;51.622;7.540;2024-01-15T07:28:52;26.33;;;10.53;;
82873;SDS011;72647;51.622;7.540;2024-01-15T07:30:52;25.97;;;9.83;;
82873;SDS011;72647;51.622;7.540;2024-01-15T07:32:52;21.73;;;8.17;;
82873;SDS011;72647;51.622;7.540;2024-01-15T07:34:53;30.33;;;12.38;;
82873;SDS011;72647;51.622;7.540;2024-01-15T07:36:54;24.95;;;10.02;;
82873;SDS011;72647;51.622;7.540;2024-01-15T07:38:54;24.10;;;10.30;;
82873;SDS011;72647;51.622;7.540;2024-01-15T07:40:54;29.77;;;11.27;;
82873;SDS011;72647;51.622;7.540;2024-01-15T07:42:55;21.73;;;7.60;;
82873;SDS011;72647;51.622;7.540;2024-01-15T07:44:55;26.73;;;9.90;;
82873;SDS011;72647;51.622;7.540;2024-01-15T07:46:55;21.20;;;8.50;;
82873;SDS011;72647;51.622;7.540;2024-01-15T07:48:55;23.57;;;10.47;;
82873;SDS011;72647;51.622;7.540;2024-01-15T07:50:58;21.02;;;8.75;;
82873;SDS011;72647;51.622;7.540;2024-01-15T07:52:59;25.07;;;10.63;;
82873;SDS011;72647;51.622;7.540;2024-01-15T07:54:59;17.27;;;8.40;;
82873;SDS011;72647;51.622;7.540;2024-01-15T07:57:00;23.70;;;9.05;;
82873;SDS011;72647;51.622;7.540;2024-01-15T07:59:00;15.63;;;7.07;;
82873;SDS011;72647;51.622;7.540;2024-01-15T08:01:01;20.63;;;7.87;;
82873;SDS011;72647;51.622;7.540;2024-01-15T08:03:01;11.57;;;5.50;;
82873;SDS011;72647;51.622;7.540;2024-01-15T08:05:02;14.82;;;7.20;;
82873;SDS011;72647;51.622;7.540;2024-01-15T08:07:03;16.65;;;6.07;;
82873;SDS011;72647;51.622;7.540;2024-01-15T08:09:03;21.80;;;7.90;;
82873;SDS011;72647;51.622;7.540;2024-01-15T08:11:05;17.20;;;7.60;;
82873;SDS011;72647;51.622;7.540;2024-01-15T08:13:05;18.60;;;8.13;;
82873;SDS011;72647;51.622;7.540;2024-01-15T08:15:07;15.00;;;6.55;;
82873;SDS011;72647;51.622;7.540;2024-01-15T08:17:08;14.63;;;5.68;;
82873;SDS011;72647;51.622;7.540;2024-01-15T08:19:08;14.73;;;5.93;;
82873;SDS011;72647;51.622;7.540;2024-01-15T08:21:08;9.93;;;4.23;;
82873;SDS011;72647;51.622;7.540;2024-01-15T08:23:09;11.73;;;4.43;;
82873;SDS011;72647;51.622;7.540;2024-01-15T08:25:09;12.05;;;4.75;;
82873;SDS011;72647;51.622;7.540;2024-01-15T08:27:09;13.17;;;5.10;;
82873;SDS011;72647;51.622;7.540;2024-01-15T08:29:10;11.30;;;4.17;;
82873;SDS011;72647;51.622;7.540;2024-01-15T08:31:10;12.85;;;4.75;;
82873;SDS011;72647;51.622;7.540;2024-01-15T08:33:10;16.70;;;5.40;;
82873;SDS011;72647;51.622;7.540;2024-01-15T08:35:11;15.43;;;5.20;;
82873;SDS011;72647;51.622;7.540;2024-01-15T08:37:11;16.95;;;5.82;;
82873;SDS011;72647;51.622;7.540;2024-01-15T08:39:11;10.55;;;4.63;;
82873;SDS011;72647;51.622;7.540;2024-01-15T08:41:13;13.05;;;5.43;;
82873;SDS011;72647;51.622;7.540;2024-01-15T08:43:13;9.63;;;4.93;;
82873;SDS011;72647;51.622;7.540;2024-01-15T08:45:14;10.67;;;5.07;;
82873;SDS011;72647;51.622;7.540;2024-01-15T08:47:15;11.95;;;5.05;;
82873;SDS011;72647;51.622;7.540;2024-01-15T08:49:15;13.27;;;5.83;;
82873;SDS011;72647;51.622;7.540;2024-01-15T08:51:15;12.80;;;6.60;;
82873;SDS011;72647;51.622;7.540;2024-01-15T08:53:15;16.53;;;6.10;;
82873;SDS011;72647;51.622;7.540;2024-01-15T08:55:15;13.20;;;5.87;;
82873;SDS011;72647;51.622;7.540;2024-01-15T08:57:15;8.87;;;4.60;;
82873;SDS011;72647;51.622;7.540;2024-01-15T08:59:16;11.73;;;5.20;;
82873;SDS011;72647;51.622;7.540;2024-01-15T09:01:16;10.27;;;4.83;;
82873;SDS011;72647;51.622;7.540;2024-01-15T09:03:16;10.85;;;4.15;;
82873;SDS011;72647;51.622;7.540;2024-01-15T09:05:16;11.13;;;5.20;;
82873;SDS011;72647;51.622;7.540;2024-01-15T09:07:17;12.20;;;5.37;;
82873;SDS011;72647;51.622;7.540;2024-01-15T09:09:18;14.97;;;5.30;;
82873;SDS011;72647;51.622;7.540;2024-01-15T09:11:18;14.85;;;6.03;;
82873;SDS011;72647;51.622;7.540;2024-01-15T09:13:18;11.63;;;4.83;;
82873;SDS011;72647;51.622;7.540;2024-01-15T09:15:19;10.50;;;4.97;;
82873;SDS011;72647;51.622;7.540;2024-01-15T09:17:20;15.70;;;5.85;;
82873;SDS011;72647;51.622;7.540;2024-01-15T09:19:21;15.32;;;6.07;;
82873;SDS011;72647;51.622;7.540;2024-01-15T09:21:22;20.57;;;7.63;;
82873;SDS011;72647;51.622;7.540;2024-01-15T09:23:22;16.92;;;6.80;;
82873;SDS011;72647;51.622;7.540;2024-01-15T09:25:22;17.90;;;6.57;;
82873;SDS011;72647;51.622;7.540;2024-01-15T09:27:22;19.80;;;7.97;;
82873;SDS011;72647;51.622;7.540;2024-01-15T09:29:22;23.43;;;10.27;;
82873;SDS011;72647;51.622;7.540;2024-01-15T09:31:23;21.98;;;8.43;;
82873;SDS011;72647;51.622;7.540;2024-01-15T09:33:23;18.87;;;8.30;;
82873;SDS011;72647;51.622;7.540;2024-01-15T09:35:24;17.83;;;7.13;;
82873;SDS011;72647;51.622;7.540;2024-01-15T09:37:24;16.30;;;8.27;;
82873;SDS011;72647;51.622;7.540;2024-01-15T09:39:24;23.67;;;10.00;;
82873;SDS011;72647;51.622;7.540;2024-01-15T09:41:24;19.90;;;8.73;;
82873;SDS011;72647;51.622;7.540;2024-01-15T09:43:25;24.63;;;9.27;;
82873;SDS011;72647;51.622;7.540;2024-01-15T09:45:26;18.55;;;7.78;;
82873;SDS011;72647;51.622;7.540;2024-01-15T09:47:26;22.02;;;10.10;;
82873;SDS011;72647;51.622;7.540;2024-01-15T09:49:26;20.45;;;9.70;;
82873;SDS011;72647;51.622;7.540;2024-01-15T09:51:28;22.23;;;9.10;;
82873;SDS011;72647;51.622;7.540;2024-01-15T09:53:31;14.18;;;7.38;;
82873;SDS011;72647;51.622;7.540;2024-01-15T09:55:32;15.73;;;7.65;;
82873;SDS011;72647;51.622;7.540;2024-01-15T09:57:35;20.77;;;9.32;;
82873;SDS011;72647;51.622;7.540;2024-01-15T09:59:35;16.10;;;7.18;;
82873;SDS011;72647;51.622;7.540;2024-01-15T10:01:36;17.70;;;7.30;;
82873;SDS011;72647;51.622;7.540;2024-01-15T10:03:36;13.35;;;6.72;;
82873;SDS011;72647;51.622;7.540;2024-01-15T10:05:38;12.68;;;6.68;;
82873;SDS011;72647;51.622;7.540;2024-01-15T10:07:38;14.53;;;6.63;;
82873;SDS011;72647;51.622;7.540;2024-01-15T10:09:39;18.58;;;7.82;;
82873;SDS011;72647;51.622;7.540;2024-01-15T10:11:41;15.80;;;6.40;;
82873;SDS011;72647;51.622;7.540;2024-01-15T10:13:43;13.65;;;6.53;;
82873;SDS011;72647;51.622;7.540;2024-01-15T10:15:46;14.43;;;6.43;;
82873;SDS011;72647;51.622;7.540;2024-01-15T10:17:50;14.27;;;5.50;;
82873;SDS011;72647;51.622;7.540;2024-01-15T10:19:50;13.55;;;6.28;;
82873;SDS011;72647;51.622;7.540;2024-01-15T10:21:50;10.40;;;5.40;;
82873;SDS011;72647;51.622;7.540;2024-01-15T10:23:50;11.03;;;5.30;;
82873;SDS011;72647;51.622;7.540;2024-01-15T10:25:51;7.30;;;4.20;;
82873;SDS011;72647;51.622;7.540;2024-01-15T10:28:01;11.30;;;5.15;;
82873;SDS011;72647;51.622;7.540;2024-01-15T10:30:01;8.55;;;4.57;;
82873;SDS011;72647;51.622;7.540;2024-01-15T10:34:12;8.20;;;3.78;;
82873;SDS011;72647;51.622;7.540;2024-01-15T10:36:16;8.32;;;4.25;;
82873;SDS011;72647;51.622;7.540;2024-01-15T10:38:17;10.43;;;5.13;;
82873;SDS011;72647;51.622;7.540;2024-01-15T10:40:20;9.57;;;4.82;;
82873;SDS011;72647;51.622;7.540;2024-01-15T10:42:21;8.83;;;5.30;;
82873;SDS011;72647;51.622;7.540;2024-01-15T10:44:21;7.82;;;4.82;;
82873;SDS011;72647;51.622;7.540;2024-01-15T10:46:21;12.00;;;5.20;;
82873;SDS011;72647;51.622;7.540;2024-01-15T10:48:23;8.07;;;4.35;;
82873;SDS011;72647;51.622;7.540;2024-01-15T10:50:24;6.60;;;4.45;;
82873;SDS011;72647;51.622;7.540;2024-01-15T10:52:24;11.70;;;4.80;;
82873;SDS011;72647;51.622;7.540;2024-01-15T10:54:24;11.35;;;4.05;;
82873;SDS011;72647;51.622;7.540;2024-01-15T10:56:28;9.77;;;5.15;;
82873;SDS011;72647;51.622;7.540;2024-01-15T10:58:29;7.93;;;4.20;;
82873;SDS011;72647;51.622;7.540;2024-01-15T11:00:31;10.30;;;5.00;;
82873;SDS011;72647;51.622;7.540;2024-01-15T11:02:32;8.32;;;3.80;;
82873;SDS011;72647;51.622;7.540;2024-01-15T11:04:35;9.63;;;4.40;;
82873;SDS011;72647;51.622;7.540;2024-01-15T11:06:42;7.65;;;4.32;;
82873;SDS011;72647;51.622;7.540;2024-01-15T11:08:43;8.88;;;4.78;;
82873;SDS011;72647;51.622;7.540;2024-01-15T11:10:45;8.07;;;4.43;;
82873;SDS011;72647;51.622;7.540;2024-01-15T11:12:47;9.07;;;5.03;;
82873;SDS011;72647;51.622;7.540;2024-01-15T11:14:48;14.70;;;6.47;;
82873;SDS011;72647;51.622;7.540;2024-01-15T11:16:53;11.25;;;4.25;;
82873;SDS011;72647;51.622;7.540;2024-01-15T11:23:32;6.82;;;3.42;;
82873;SDS011;72647;51.622;7.540;2024-01-15T11:25:35;10.30;;;5.40;;
82873;SDS011;72647;51.622;7.540;2024-01-15T11:29:42;11.95;;;4.78;;
82873;SDS011;72647;51.622;7.540;2024-01-15T11:33:52;7.77;;;2.83;;
82873;SDS011;72647;51.622;7.540;2024-01-15T11:35:52;5.90;;;3.00;;
82873;SDS011;72647;51.622;7.540;2024-01-15T11:40:04;10.27;;;4.03;;
82873;SDS011;72647;51.622;7.540;2024-01-15T11:42:04;6.15;;;3.30;;
82873;SDS011;72647;51.622;7.540;2024-01-15T11:44:04;8.07;;;3.43;;
82873;SDS011;72647;51.622;7.540;2024-01-15T11:46:05;10.43;;;3.80;;
82873;SDS011;72647;51.622;7.540;2024-01-15T11:48:15;11.05;;;3.88;;
82873;SDS011;72647;51.622;7.540;2024-01-15T11:50:15;7.85;;;2.67;;
82873;SDS011;72647;51.622;7.540;2024-01-15T11:52:16;9.73;;;3.75;;
82873;SDS011;72647;51.622;7.540;2024-01-15T11:54:17;8.63;;;4.75;;
82873;SDS011;72647;51.622;7.540;2024-01-15T11:56:17;10.10;;;3.70;;
82873;SDS011;72647;51.622;7.540;2024-01-15T11:58:21;6.97;;;2.83;;
82873;SDS011;72647;51.622;7.540;2024-01-15T12:00:21;7.95;;;3.22;;
82873;SDS011;72647;51.622;7.540;2024-01-15T12:02:22;9.57;;;3.42;;
82873;SDS011;72647;51.622;7.540;2024-01-15T12:04:22;7.67;;;3.53;;
82873;SDS011;72647;51.622;7.540;2024-01-15T12:06:23;9.23;;;3.20;;